Terminal Aerodrome Forecast
Issued by NWS

Home | Current Version | Previous Version | Text Only | Print | Product List | Glossary On
Versions: 1 2 3 4 5 6 7 8 9 10 11 12 13 14 15 16 17 18 19 20 21 22 23 24 25 26 27 28
000
FTUS46 KMTR 131100
TAFSFO
TAF
KSFO 131134Z 1312/1418 28013KT P6SM OVC007
     FM131800 27010KT P6SM SCT012
     FM132000 27020G26KT P6SM FEW010
     FM140400 27015KT P6SM FEW010 SCT250
     FM140700 27010KT P6SM SCT009 BKN250=

USA.gov is the U.S. government's official web portal to all federal, state and local government web resources and services.